Time;durP1;ratioP1;P1;durP2;ratioP2;P2;SDS_P1;SDS_P2;PMS_P1;PMS_P2;Temp;Humidity;BMP_temperature;BMP_pressure;BME280_temperature;BME280_humidity;BME280_pressure;Samples;Min_cycle;Max_cycle;Signal;HPM_P1;HPM_P2
2022/10/04 00:03:31;;;;;;;4.57;3.03;;;;;;;15.26;100.00;100112.31;10455555;28;20048;-69
2022/10/04 00:08:39;;;;;;;;;;;;;;;15.32;100.00;100142.78;10455729;28;20099;-69
2022/10/04 00:13:46;;;;;;;7.35;2.83;;;;;;;14.74;100.00;100091.63;10465891;28;20015;-69
2022/10/04 00:18:47;;;;;;;8.88;3.50;;;;;;;15.24;100.00;100132.28;10454843;28;20047;-69
2022/10/04 00:23:48;;;;;;;6.38;3.35;;;;;;;15.29;100.00;100138.66;10454372;28;20132;-69
2022/10/04 00:28:49;;;;;;;6.32;3.38;;;;;;;15.18;100.00;100112.50;10454683;28;20515;-69
2022/10/04 00:33:54;;;;;;;5.57;3.30;;;;;;;15.34;100.00;100155.97;10454602;28;20107;-69
2022/10/04 00:39:06;;;;;;;8.20;3.45;;;;;;;15.31;100.00;100157.19;10454640;28;20061;-69
2022/10/04 00:44:16;;;;;;;14.68;4.15;;;;;;;15.28;100.00;100133.50;10454817;28;20090;-69
2022/10/04 00:49:21;;;;;;;10.95;3.85;;;;;;;15.28;100.00;100131.66;10454889;28;20037;-69
2022/10/04 00:54:40;;;;;;;4.63;3.10;;;;;;;14.60;100.00;100035.47;10453845;28;20076;-69
2022/10/04 00:59:47;;;;;;;9.48;3.10;;;;;;;15.29;100.00;100149.38;10453537;28;20447;-69
2022/10/04 01:05:02;;;;;;;5.00;2.80;;;;;;;15.01;100.00;100151.34;10453631;28;20090;-69
2022/10/04 01:10:10;;;;;;;4.85;3.40;;;;;;;15.06;100.00;100187.19;10453206;28;20041;-69
2022/10/04 01:15:27;;;;;;;5.15;3.08;;;;;;;15.06;100.00;100184.50;10490858;28;20063;-68
2022/10/04 01:20:35;;;;;;;4.30;3.10;;;;;;;14.99;100.00;100164.94;10480286;28;20048;-69
2022/10/04 01:25:48;;;;;;;6.18;2.95;;;;;;;14.89;100.00;100156.47;10459406;28;20076;-69
2022/10/04 01:30:50;;;;;;;5.28;3.10;;;;;;;14.89;100.00;100188.56;10472410;28;20076;-69
2022/10/04 01:35:51;;;;;;;5.82;3.35;;;;;;;14.69;100.00;100195.66;10469526;28;20059;-69
2022/10/04 01:40:59;;;;;;;4.80;3.45;;;;;;;14.78;100.00;100222.06;10474820;28;20500;-69
2022/10/04 01:46:08;;;;;;;7.32;4.07;;;;;;;14.71;100.00;100226.53;10478527;28;20068;-69
2022/10/04 01:51:20;;;;;;;6.97;3.50;;;;;;;14.68;100.00;100213.56;10501346;28;20098;-69
2022/10/04 01:56:30;;;;;;;4.30;3.17;;;;;;;14.80;100.00;100224.53;10500596;28;20531;-69
2022/10/04 02:01:46;;;;;;;8.38;3.58;;;;;;;14.67;100.00;100198.56;10497221;28;20047;-69
2022/10/04 02:06:53;;;;;;;4.63;3.50;;;;;;;14.60;100.00;100213.75;10459919;28;20033;-69
2022/10/04 02:11:54;;;;;;;6.47;3.78;;;;;;;14.71;100.00;100212.34;10459920;28;20485;-69
2022/10/04 02:16:56;;;;;;;6.05;3.42;;;;;;;14.68;100.00;100232.28;10459692;28;20039;-69
2022/10/04 02:21:57;;;;;;;5.38;3.67;;;;;;;14.46;100.00;100196.75;10459267;28;20060;-69
2022/10/04 02:26:58;;;;;;;23.10;4.82;;;;;;;14.66;100.00;100201.41;10459993;28;20049;-69
2022/10/04 02:37:22;;;;;;;9.38;4.20;;;;;;;14.64;100.00;100230.22;10458316;28;20086;-70
2022/10/04 02:42:54;;;;;;;4.35;3.88;;;;;;;14.66;100.00;100241.50;10457909;28;20037;-70
2022/10/04 02:48:10;;;;;;;11.00;3.85;;;;;;;14.53;100.00;100210.19;10457809;28;20045;-69
2022/10/04 02:53:42;;;;;;;6.03;3.70;;;;;;;14.63;100.00;100236.56;10457974;28;20094;-69
2022/10/04 02:58:43;;;;;;;7.63;3.85;;;;;;;14.56;100.00;100240.03;10457465;28;20527;-69
2022/10/04 03:03:46;;;;;;;8.85;3.63;;;;;;;14.42;100.00;100222.25;10457836;28;20045;-69
2022/10/04 03:08:58;;;;;;;18.02;4.68;;;;;;;14.47;100.00;100232.31;10489906;28;20039;-70
2022/10/04 03:14:01;;;;;;;41.22;7.22;;;;;;;14.02;100.00;100167.69;10498179;28;20496;-69
2022/10/04 03:19:03;;;;;;;50.50;6.67;;;;;;;13.66;100.00;100102.75;10498106;28;20036;-69
2022/10/04 03:24:06;;;;;;;23.85;4.30;;;;;;;14.50;100.00;100229.25;10499047;28;20032;-70
2022/10/04 03:29:09;;;;;;;17.05;3.97;;;;;;;14.47;100.00;100211.78;10498451;28;20515;-69
2022/10/04 03:34:17;;;;;;;9.63;3.83;;;;;;;14.03;100.00;100116.78;10497924;28;20073;-69
2022/10/04 03:39:26;;;;;;;8.65;3.67;;;;;;;14.54;100.00;100171.78;10497076;28;20056;-70
2022/10/04 03:44:27;;;;;;;30.35;4.40;;;;;;;14.43;100.00;100150.91;10496761;28;20589;-69
2022/10/04 03:49:35;;;;;;;9.02;3.58;;;;;;;14.26;100.00;100088.94;10491538;28;20093;-70
2022/10/04 03:54:37;;;;;;;22.15;4.40;;;;;;;14.40;100.00;100106.69;10493784;28;20052;-72
2022/10/04 03:59:38;;;;;;;20.05;4.90;;;;;;;14.06;100.00;100028.25;10491966;28;20084;-70
2022/10/04 04:04:51;;;;;;;17.27;4.70;;;;;;;14.32;100.00;100072.94;10496251;28;20515;-69
2022/10/04 04:10:00;;;;;;;23.60;4.78;;;;;;;14.61;100.00;100092.41;10495904;28;20090;-69
2022/10/04 04:15:03;;;;;;;11.82;4.13;;;;;;;14.72;100.00;100109.75;10496461;28;20047;-68
2022/10/04 04:20:14;;;;;;;12.70;3.65;;;;;;;15.05;100.00;100133.91;10494668;28;20048;-68
2022/10/04 04:25:16;;;;;;;11.20;3.45;;;;;;;15.38;100.00;100144.66;10495606;28;20055;-69
2022/10/04 04:30:17;;;;;;;12.23;3.50;;;;;;;15.77;100.00;100151.09;10495626;28;20500;-68
2022/10/04 04:35:30;;;;;;;9.82;3.20;;;;;;;16.13;100.00;100139.09;10496106;28;20089;-68
2022/10/04 04:40:32;;;;;;;25.63;3.78;;;;;;;16.17;100.00;100092.06;10495390;28;20063;-69
2022/10/04 04:45:35;;;;;;;6.00;3.38;;;;;;;15.93;100.00;100104.28;10489165;28;20032;-71
2022/10/04 04:50:39;;;;;;;16.60;3.95;;;;;;;16.18;100.00;100192.88;10484689;28;20527;-69
2022/10/04 04:55:40;;;;;;;;;;;;;;;16.35;100.00;100228.94;10453999;28;20103;-69
2022/10/04 05:00:41;;;;;;;8.77;3.20;;;;;;;15.92;100.00;100189.19;10453904;28;19999;-69
2022/10/04 05:05:46;;;;;;;6.57;3.45;;;;;;;16.20;100.00;100210.41;10453961;28;20041;-69
2022/10/04 05:10:56;;;;;;;8.70;3.45;;;;;;;16.48;100.00;100200.44;10453639;28;20047;-69
2022/10/04 05:15:58;;;;;;;13.93;3.53;;;;;;;16.63;100.00;100209.06;10454398;28;20041;-69
2022/10/04 05:21:17;;;;;;;8.63;3.33;;;;;;;16.82;98.75;100221.63;10455071;28;20056;-69
2022/10/04 05:26:27;;;;;;;9.65;3.67;;;;;;;16.72;98.23;100206.97;10461664;28;20159;-69
2022/10/04 05:31:55;;;;;;;10.85;3.90;;;;;;;16.95;97.04;100222.63;10461386;28;20497;-70
2022/10/04 05:37:22;;;;;;;9.13;4.28;;;;;;;16.94;95.57;100207.56;10461334;28;20123;-69
2022/10/04 05:42:40;;;;;;;7.07;3.47;;;;;;;16.89;95.70;100214.38;10460766;28;20039;-69
2022/10/04 05:47:42;;;;;;;6.40;3.88;;;;;;;16.83;96.12;100203.66;10460690;28;20390;-69
2022/10/04 05:52:45;;;;;;;5.45;3.45;;;;;;;16.99;95.56;100243.47;10460415;28;20033;-69
2022/10/04 05:58:03;;;;;;;6.82;3.88;;;;;;;17.06;93.02;100263.03;10461043;28;20037;-70
2022/10/04 06:03:28;;;;;;;7.15;3.38;;;;;;;17.18;92.52;100233.66;10459941;28;20087;-70
2022/10/04 06:08:42;;;;;;;11.43;3.83;;;;;;;17.20;92.18;100220.00;10459988;28;20037;-70
2022/10/04 06:13:51;;;;;;;388.92;270.00;;;;;;;17.31;91.09;100204.06;10459362;28;20086;-69
2022/10/04 06:19:18;;;;;;;146.75;97.55;;;;;;;17.11;90.89;100138.91;10459608;28;20041;-69
2022/10/04 06:24:25;;;;;;;92.63;63.08;;;;;;;17.50;88.87;100217.56;10460003;28;20408;-70
2022/10/04 06:29:32;;;;;;;31.00;20.17;;;;;;;17.33;90.44;100196.63;10458590;28;20040;-70
2022/10/04 06:34:55;;;;;;;21.42;14.15;;;;;;;17.68;90.85;100219.50;10456966;28;20412;-69
2022/10/04 06:40:20;;;;;;;23.03;11.37;;;;;;;17.76;89.71;100241.56;10458229;28;20053;-69
2022/10/04 06:45:38;;;;;;;14.77;7.68;;;;;;;16.95;90.50;100118.78;10458553;28;20057;-70
2022/10/04 06:51:13;;;;;;;18.75;12.45;;;;;;;17.92;89.78;100256.38;10458480;28;20325;-70
2022/10/04 06:56:35;;;;;;;15.77;5.55;;;;;;;17.79;88.83;100202.72;10457618;28;20045;-69
2022/10/04 07:01:47;;;;;;;10.60;5.22;;;;;;;18.40;87.62;100249.56;10456860;28;20124;-69
2022/10/04 07:07:34;;;;;;;16.02;4.93;;;;;;;18.75;86.58;100257.91;10457779;28;20419;-69
2022/10/04 07:12:40;;;;;;;21.27;3.95;;;;;;;18.48;85.17;100168.56;10457495;28;20507;-69
2022/10/04 07:17:44;;;;;;;16.23;3.38;;;;;;;18.97;83.44;100217.94;10457495;28;20048;-70
2022/10/04 07:22:55;;;;;;;4.53;1.83;;;;;;;19.07;82.99;100179.69;10457461;28;20033;-71
2022/10/04 07:33:30;;;;;;;5.28;1.83;;;;;;;19.21;80.36;100115.72;10457035;28;20092;-70
2022/10/04 07:38:37;;;;;;;13.52;2.20;;;;;;;19.41;79.13;100121.59;10456655;28;20512;-71
2022/10/04 07:43:46;;;;;;;28.38;2.88;;;;;;;19.50;77.43;100174.06;10456001;28;20045;-70
2022/10/04 07:48:50;;;;;;;6.05;1.95;;;;;;;19.54;79.00;100172.59;10456036;28;20057;-68
2022/10/04 07:54:09;;;;;;;;;;;;;;;19.86;77.97;100176.88;10455228;28;20055;-68
2022/10/04 07:59:18;;;;;;;3.10;1.38;;;;;;;19.67;78.72;100181.53;10455848;28;19912;-68
2022/10/04 08:04:31;;;;;;;7.45;2.50;;;;;;;19.77;75.66;100154.81;10454973;28;20051;-69
2022/10/04 08:09:38;;;;;;;5.30;3.00;;;;;;;19.82;77.72;100173.81;10454718;28;20041;-68
2022/10/04 08:14:54;;;;;;;7.50;2.00;;;;;;;20.12;73.04;100189.09;10454775;28;20037;-69
2022/10/04 08:20:19;;;;;;;2.10;1.08;;;;;;;20.19;70.29;100192.47;10455780;28;20040;-68
2022/10/04 08:25:42;;;;;;;1.92;1.05;;;;;;;20.27;68.94;100181.34;10454871;28;20044;-69
2022/10/04 08:30:47;;;;;;;2.42;1.33;;;;;;;20.65;67.88;100201.63;10454246;28;20063;-69
2022/10/04 08:36:07;;;;;;;4.13;1.00;;;;;;;21.14;65.56;100202.03;10454447;28;20055;-69
2022/10/04 08:41:35;;;;;;;1.98;0.90;;;;;;;21.29;63.94;100196.94;10454704;28;20493;-69
2022/10/04 08:46:54;;;;;;;5.45;1.02;;;;;;;21.05;64.12;100127.88;10454435;28;20041;-69
2022/10/04 08:52:20;;;;;;;2.58;0.95;;;;;;;21.71;60.44;100193.09;10453683;28;20049;-69
2022/10/04 08:57:58;;;;;;;1.95;0.95;;;;;;;21.64;60.67;100206.78;10459801;28;20413;-69
2022/10/04 09:03:33;;;;;;;6.32;1.17;;;;;;;20.71;60.21;100104.31;10462713;28;20094;-69
2022/10/04 09:09:00;;;;;;;2.03;0.75;;;;;;;21.31;61.83;100234.53;10462931;28;20212;-70
2022/10/04 09:14:42;;;;;;;4.28;1.55;;;;;;;21.45;63.45;100226.97;10461651;28;20044;-69
2022/10/04 09:19:58;;;;;;;4.00;1.43;;;;;;;22.41;58.94;100170.09;10440703;28;20040;-69
2022/10/04 09:25:26;;;;;;;5.68;1.23;;;;;;;22.88;59.70;100164.16;10460907;28;20128;-69
2022/10/04 09:30:56;;;;;;;12.18;1.40;;;;;;;22.63;58.96;100198.00;10461020;28;20052;-71
2022/10/04 09:36:34;;;;;;;5.22;1.17;;;;;;;22.10;61.13;100154.22;10460733;28;20107;-70
2022/10/04 09:41:53;;;;;;;13.07;1.55;;;;;;;21.78;63.03;100127.00;10460440;28;20085;-71
2022/10/04 09:47:00;;;;;;;5.60;1.25;;;;;;;21.70;63.18;100135.50;10460435;28;20133;-70
2022/10/04 09:52:19;;;;;;;3.60;1.20;;;;;;;21.83;61.54;100166.78;10460719;28;20051;-70
2022/10/04 09:57:33;;;;;;;8.52;1.70;;;;;;;21.97;62.61;100213.25;10460639;28;20067;-69
2022/10/04 10:02:57;;;;;;;12.18;1.67;;;;;;;22.37;61.18;100193.31;10459774;28;20048;-70
2022/10/04 10:08:26;;;;;;;12.55;2.25;;;;;;;22.60;61.96;100192.28;10460306;28;20091;-72
2022/10/04 10:13:38;;;;;;;12.77;1.85;;;;;;;22.33;60.21;100188.41;10459550;28;20056;-70
2022/10/04 10:19:18;;;;;;;4.32;1.45;;;;;;;22.50;61.54;100230.88;10459611;28;20033;-70
2022/10/04 10:24:53;;;;;;;5.43;1.65;;;;;;;22.44;60.64;100231.88;10459527;28;20449;-70
2022/10/04 10:30:09;;;;;;;2.88;1.40;;;;;;;22.37;61.39;100236.63;10459237;28;20043;-70
2022/10/04 10:35:24;;;;;;;4.82;1.48;;;;;;;22.21;62.28;100244.50;10458559;28;20048;-70
2022/10/04 10:40:28;;;;;;;8.88;1.90;;;;;;;21.95;62.24;100264.88;10458966;28;20079;-70
2022/10/04 10:45:28;;;;;;;;;;;;;;;22.03;62.85;100258.25;10459080;28;20051;-70
2022/10/04 10:51:00;;;;;;;19.60;2.08;;;;;;;21.75;61.96;100240.22;10457893;28;19916;-70
2022/10/04 10:56:37;;;;;;;25.75;2.33;;;;;;;21.65;64.66;100248.94;10458389;28;20133;-70
2022/10/04 11:02:00;;;;;;;35.45;18.73;;;;;;;20.78;64.49;100135.75;10458056;28;20079;-70
2022/10/04 11:07:22;;;;;;;122.70;73.57;;;;;;;21.52;64.06;100260.91;10457996;28;20418;-71
2022/10/04 11:12:30;;;;;;;19.30;10.57;;;;;;;21.45;64.86;100248.56;10457331;28;20045;-69
2022/10/04 11:17:40;;;;;;;8.23;3.75;;;;;;;21.19;63.04;100189.47;10455999;28;20040;-69
2022/10/04 11:23:19;;;;;;;50.08;6.43;;;;;;;22.09;62.90;100258.09;10456737;28;20572;-70
2022/10/04 11:28:35;;;;;;;7.63;1.90;;;;;;;21.72;62.53;100219.91;10455588;28;20044;-70
2022/10/04 11:34:01;;;;;;;20.27;2.20;;;;;;;22.20;63.40;100264.53;10457003;28;20037;-70
2022/10/04 11:39:19;;;;;;;4.43;2.00;;;;;;;22.25;61.78;100286.22;10457035;28;20063;-71
2022/10/04 11:44:34;;;;;;;7.68;1.92;;;;;;;21.00;62.12;100088.13;10456339;28;20335;-69
2022/10/04 11:49:55;;;;;;;8.10;2.20;;;;;;;22.29;61.68;100275.75;10455385;28;20061;-69
2022/10/04 11:55:41;;;;;;;23.23;3.50;;;;;;;22.11;61.82;100288.44;10456039;28;20033;-69
2022/10/04 12:01:00;;;;;;;7.25;2.13;;;;;;;21.84;63.51;100315.28;10455443;28;20496;-71
2022/10/04 12:06:32;;;;;;;11.30;2.88;;;;;;;21.15;65.54;100255.84;10455977;28;20381;-69
2022/10/04 12:17:54;;;;;;;10.80;3.25;;;;;;;20.84;66.41;100246.28;10454290;28;20080;-69
2022/10/04 12:23:12;;;;;;;26.23;3.50;;;;;;;21.30;67.25;100308.53;10458662;28;20048;-69
2022/10/04 12:28:39;;;;;;;7.80;2.40;;;;;;;21.08;65.16;100268.66;10477326;28;20044;-70
2022/10/04 12:34:04;;;;;;;6.20;1.80;;;;;;;21.12;65.11;100271.69;10501924;28;20052;-72
2022/10/04 12:39:05;;;;;;;21.52;2.95;;;;;;;21.00;65.95;100223.13;10493675;28;20056;-70
2022/10/04 12:44:23;;;;;;;10.57;2.20;;;;;;;20.63;66.42;100206.44;10486666;28;20060;-70
2022/10/04 12:49:42;;;;;;;10.38;3.58;;;;;;;20.91;67.21;100294.75;10468707;28;20102;-70
2022/10/04 12:54:46;;;;;;;23.98;4.07;;;;;;;20.36;68.07;100222.25;10495242;28;20517;-70
2022/10/04 12:59:52;;;;;;;8.00;4.20;;;;;;;20.65;68.27;100317.69;10494926;28;20085;-70
2022/10/04 13:05:07;;;;;;;11.50;2.78;;;;;;;20.74;69.73;100362.97;10457340;28;20396;-69
2022/10/04 13:10:29;;;;;;;22.77;3.95;;;;;;;20.87;71.21;100363.78;10453594;28;20425;-70
2022/10/04 13:15:47;;;;;;;7.10;2.50;;;;;;;20.22;70.08;100259.44;10453692;28;20485;-70
2022/10/04 13:21:35;;;;;;;20.67;3.00;;;;;;;20.77;73.27;100340.09;10460274;28;20069;-70
2022/10/04 13:26:41;;;;;;;9.50;3.00;;;;;;;20.67;72.82;100369.53;10471594;28;20185;-71
2022/10/04 13:31:48;;;;;;;56.17;5.60;;;;;;;20.16;75.91;100287.34;10471952;28;20037;-69
2022/10/04 13:37:27;;;;;;;11.68;3.67;;;;;;;20.61;75.42;100373.16;10482371;28;20044;-69
2022/10/04 13:42:35;;;;;;;93.95;11.00;;;;;;;20.54;75.63;100369.78;10481879;28;20047;-69
2022/10/04 13:48:32;;;;;;;47.08;19.00;;;;;;;20.51;76.22;100377.22;10460663;28;20067;-69
2022/10/04 13:59:51;;;;;;;322.13;112.63;;;;;;;20.13;79.31;100391.09;10501094;28;20036;-69
2022/10/04 14:05:24;;;;;;;54.60;20.67;;;;;;;19.68;79.78;100331.41;10484181;28;20044;-70
2022/10/04 14:10:43;;;;;;;24.02;9.23;;;;;;;19.98;80.81;100405.03;10478543;28;20565;-71
2022/10/04 14:16:02;;;;;;;15.40;5.25;;;;;;;19.77;82.05;100347.03;10471338;28;20041;-71
2022/10/04 14:21:24;;;;;;;37.05;26.92;;;;;;;19.83;83.22;100356.91;10477665;28;20072;-71
2022/10/04 14:26:37;;;;;;;50.50;16.42;;;;;;;19.27;83.26;100265.59;10495469;28;20114;-70
2022/10/04 14:32:12;;;;;;;40.20;18.90;;;;;;;19.71;84.38;100339.03;10495863;28;20044;-70
2022/10/04 14:37:28;;;;;;;19.60;6.90;;;;;;;19.18;84.90;100296.59;10495917;28;20090;-70
2022/10/04 14:42:57;;;;;;;22.15;5.20;;;;;;;19.54;86.23;100407.00;10497534;28;20076;-69
2022/10/04 14:48:18;;;;;;;29.20;9.50;;;;;;;19.43;85.72;100421.22;10458397;28;20052;-69
2022/10/04 14:54:03;;;;;;;35.75;13.75;;;;;;;18.88;87.52;100372.69;10459110;28;20563;-70
2022/10/04 14:59:12;;;;;;;26.30;7.85;;;;;;;19.28;87.74;100456.59;10475654;28;20075;-70
2022/10/04 15:04:24;;;;;;;39.38;15.13;;;;;;;19.20;85.96;100467.63;10488689;28;20055;-72
2022/10/04 15:09:28;;;;;;;20.90;5.75;;;;;;;19.18;86.35;100477.00;10473588;28;20098;-70
2022/10/04 15:14:37;;;;;;;;;;;;;;;19.26;86.42;100469.44;10486110;28;20447;-70
2022/10/04 15:20:21;;;;;;;11.02;3.55;;;;;;;19.15;90.22;100476.41;10463351;28;20376;-70
2022/10/04 15:25:51;;;;;;;15.88;5.10;;;;;;;19.10;90.79;100507.72;10457742;28;20048;-70
2022/10/04 15:31:17;;;;;;;11.02;4.30;;;;;;;18.60;90.85;100435.81;10456272;28;20127;-71
2022/10/04 15:36:43;;;;;;;24.58;4.43;;;;;;;19.00;91.58;100473.22;10456053;28;20037;-70
2022/10/04 15:41:59;;;;;;;17.15;5.05;;;;;;;18.85;91.16;100470.03;10457440;28;20057;-70
2022/10/04 15:47:06;;;;;;;16.48;4.90;;;;;;;18.63;92.63;100499.13;10456598;28;20048;-70
2022/10/04 15:52:13;;;;;;;10.15;3.58;;;;;;;18.31;92.77;100507.19;10454423;28;20056;-70
2022/10/04 15:57:14;;;;;;;8.07;3.00;;;;;;;18.34;90.72;100508.63;10454772;28;20127;-70
2022/10/04 16:02:48;;;;;;;6.70;2.60;;;;;;;18.34;91.20;100490.63;10463303;28;20050;-71
2022/10/04 16:08:12;;;;;;;8.82;2.65;;;;;;;17.91;92.72;100448.22;10493992;28;20041;-71
2022/10/04 16:13:16;;;;;;;11.90;3.22;;;;;;;18.20;92.23;100505.19;10469783;28;20040;-72
2022/10/04 16:18:35;;;;;;;17.05;3.83;;;;;;;18.09;91.66;100513.91;10475340;28;20040;-72
2022/10/04 16:23:42;;;;;;;16.00;5.25;;;;;;;17.81;93.09;100504.28;10494222;28;20558;-72
2022/10/04 16:29:03;;;;;;;16.30;5.82;;;;;;;17.78;96.94;100516.28;10489800;28;20476;-72
2022/10/04 16:34:28;;;;;;;27.42;9.57;;;;;;;17.70;96.62;100511.09;10491258;28;20094;-72
2022/10/04 16:39:59;;;;;;;25.90;11.38;;;;;;;17.59;97.45;100517.13;10467730;28;20057;-72
2022/10/04 16:45:39;;;;;;;71.32;26.33;;;;;;;17.53;97.42;100515.28;10486951;28;20127;-72
2022/10/04 16:51:03;;;;;;;39.58;13.93;;;;;;;17.41;97.53;100496.31;10479477;28;20052;-71
2022/10/04 16:56:16;;;;;;;18.70;6.90;;;;;;;16.87;99.38;100432.94;10477227;28;20041;-71
2022/10/04 17:01:38;;;;;;;15.23;6.07;;;;;;;17.33;98.79;100526.88;10465052;28;20041;-71
2022/10/04 17:07:17;;;;;;;13.90;7.85;;;;;;;16.47;98.50;100424.03;10453508;28;20548;-71
2022/10/04 17:12:34;;;;;;;24.02;7.00;;;;;;;16.76;98.42;100503.34;10463923;28;20052;-71
2022/10/04 17:17:50;;;;;;;10.23;4.57;;;;;;;17.18;98.17;100590.69;10473091;28;20075;-72
2022/10/04 17:23:10;;;;;;;6.47;3.25;;;;;;;17.53;97.74;100630.78;10499965;28;20040;-72
2022/10/04 17:28:53;;;;;;;7.25;3.50;;;;;;;17.57;97.50;100635.53;10486724;28;20040;-72
2022/10/04 17:34:32;;;;;;;12.02;5.05;;;;;;;17.59;95.83;100629.97;10492034;28;20060;-71
2022/10/04 17:39:46;;;;;;;12.85;5.07;;;;;;;17.30;95.66;100594.41;10481587;28;20124;-71
2022/10/04 17:45:07;;;;;;;54.85;24.95;;;;;;;17.54;94.56;100614.44;10477814;28;20063;-72
2022/10/04 17:56:00;;;;;;;47.47;28.63;;;;;;;17.38;97.46;100547.75;10477496;28;20032;-71
2022/10/04 18:01:09;;;;;;;23.97;11.10;;;;;;;17.55;97.72;100578.50;10478466;28;20072;-71
2022/10/04 18:06:35;;;;;;;17.48;9.35;;;;;;;17.46;98.77;100576.22;10476326;28;20074;-72
2022/10/04 18:11:45;;;;;;;11.27;5.88;;;;;;;17.36;99.35;100583.88;10481841;28;20565;-71
2022/10/04 18:16:58;;;;;;;9.50;5.28;;;;;;;17.34;98.18;100598.31;10476308;28;20065;-71
2022/10/04 18:22:14;;;;;;;12.95;6.00;;;;;;;17.33;100.00;100634.28;10477474;28;20051;-72
2022/10/04 18:27:17;;;;;;;21.42;12.52;;;;;;;17.29;99.93;100643.78;10480602;28;20036;-72
2022/10/04 18:32:27;;;;;;;16.45;9.70;;;;;;;17.11;100.00;100612.16;10474259;28;20091;-71
2022/10/04 18:37:39;;;;;;;15.48;10.07;;;;;;;17.11;100.00;100589.84;10483922;28;20086;-71
2022/10/04 18:42:43;;;;;;;23.75;10.27;;;;;;;16.99;100.00;100586.97;10492516;28;20076;-71
2022/10/04 18:47:44;;;;;;;;;;;;;;;17.21;100.00;100584.91;10496933;28;20437;-72
2022/10/04 18:53:04;;;;;;;15.60;6.93;;;;;;;17.06;100.00;100621.84;10476425;28;19917;-72
2022/10/04 19:04:19;;;;;;;17.13;7.07;;;;;;;16.99;100.00;100637.09;10456713;28;20079;-71
2022/10/04 19:09:45;;;;;;;22.17;9.32;;;;;;;16.42;100.00;100554.19;10457666;28;20496;-72
2022/10/04 19:15:07;;;;;;;14.68;8.05;;;;;;;16.90;100.00;100663.28;10457740;28;20040;-72
2022/10/04 19:20:37;;;;;;;28.38;8.65;;;;;;;16.88;100.00;100674.25;10469629;28;20055;-70
2022/10/04 19:26:09;;;;;;;17.33;7.82;;;;;;;16.97;100.00;100708.97;10497373;28;20075;-70
2022/10/04 19:31:48;;;;;;;10.80;5.70;;;;;;;17.03;100.00;100686.69;10497891;28;20048;-70
2022/10/04 19:36:58;;;;;;;7.20;5.32;;;;;;;16.67;100.00;100628.75;10497091;28;20053;-70
2022/10/04 19:42:07;;;;;;;12.02;5.10;;;;;;;17.11;100.00;100676.59;10497781;28;20068;-70
2022/10/04 19:47:35;;;;;;;9.55;5.07;;;;;;;17.05;100.00;100660.44;10497792;28;20051;-71
2022/10/04 19:53:01;;;;;;;8.13;4.28;;;;;;;17.17;100.00;100666.03;10496777;28;20048;-71
2022/10/04 19:58:37;;;;;;;7.60;5.15;;;;;;;17.24;100.00;100694.56;10497850;28;20036;-71
2022/10/04 20:03:39;;;;;;;8.23;4.60;;;;;;;17.12;100.00;100666.69;10493793;28;20504;-70
2022/10/04 20:08:46;;;;;;;6.53;4.75;;;;;;;17.13;100.00;100665.63;10495601;28;20459;-70
2022/10/04 20:14:15;;;;;;;7.82;5.30;;;;;;;17.08;100.00;100686.88;10495139;28;20127;-70
2022/10/04 20:19:30;;;;;;;7.30;5.00;;;;;;;16.97;100.00;100695.53;10494879;28;20045;-70
2022/10/04 20:24:37;;;;;;;9.10;5.93;;;;;;;16.79;100.00;100694.22;10495853;28;20420;-70
2022/10/04 20:29:38;;;;;;;9.35;6.05;;;;;;;16.23;100.00;100607.72;10495661;28;20051;-70
2022/10/04 20:34:38;;;;;;;10.43;5.35;;;;;;;16.54;100.00;100693.03;10496082;28;20036;-71
2022/10/04 20:39:39;;;;;;;8.25;5.40;;;;;;;16.47;100.00;100681.47;10496278;28;20044;-70
2022/10/04 20:44:42;;;;;;;9.38;6.30;;;;;;;16.39;100.00;100704.75;10495905;28;20036;-70
2022/10/04 20:49:44;;;;;;;7.57;5.25;;;;;;;16.24;100.00;100693.28;10495566;28;20459;-70
2022/10/04 20:54:51;;;;;;;10.35;5.05;;;;;;;16.34;100.00;100725.13;10495747;28;20169;-71
2022/10/04 20:59:54;;;;;;;8.57;4.95;;;;;;;16.27;100.00;100729.59;10496206;28;20488;-71
2022/10/04 21:05:11;;;;;;;8.95;5.05;;;;;;;16.30;100.00;100737.25;10495971;28;20036;-71
2022/10/04 21:10:19;;;;;;;6.20;4.60;;;;;;;15.84;100.00;100666.22;10473777;28;20435;-71
2022/10/04 21:15:21;;;;;;;7.95;5.53;;;;;;;16.14;100.00;100725.78;10453641;28;20554;-71
2022/10/04 21:20:41;;;;;;;8.38;5.03;;;;;;;16.11;100.00;100752.16;10453857;28;20497;-71
2022/10/04 21:25:42;;;;;;;7.15;5.32;;;;;;;15.73;100.00;100739.91;10453049;28;20080;-71
2022/10/04 21:30:42;;;;;;;8.50;5.65;;;;;;;15.87;100.00;100789.06;10453023;28;20500;-71
2022/10/04 21:35:43;;;;;;;6.13;4.88;;;;;;;15.72;100.00;100782.94;10453992;28;20036;-71
2022/10/04 21:40:44;;;;;;;7.55;5.05;;;;;;;15.87;100.00;100799.78;10453960;28;20087;-71
2022/10/04 21:45:45;;;;;;;8.23;5.15;;;;;;;15.81;100.00;100783.63;10452663;28;20052;-71
2022/10/04 21:50:46;;;;;;;7.10;4.53;;;;;;;15.79;100.00;100791.84;10452507;28;20120;-70
2022/10/04 21:55:47;;;;;;;7.38;4.55;;;;;;;15.78;100.00;100797.41;10452590;28;20045;-71
2022/10/04 22:00:48;;;;;;;10.48;5.00;;;;;;;15.66;100.00;100792.53;10452488;28;20497;-71
2022/10/04 22:05:49;;;;;;;7.28;4.93;;;;;;;15.50;100.00;100798.97;10458955;28;20416;-71
2022/10/04 22:10:50;;;;;;;9.80;4.97;;;;;;;15.70;100.00;100819.78;10460396;28;20048;-70
2022/10/04 22:15:51;;;;;;;8.73;3.80;;;;;;;15.65;100.00;100804.28;10459999;28;20140;-71
2022/10/04 22:20:52;;;;;;;6.00;3.08;;;;;;;15.80;100.00;100824.84;10459207;28;20539;-71
2022/10/04 22:25:54;;;;;;;5.60;3.10;;;;;;;15.79;100.00;100844.59;10459719;28;20033;-71
2022/10/04 22:30:56;;;;;;;29.83;3.33;;;;;;;15.70;100.00;100844.75;10468227;28;20051;-71
2022/10/04 22:36:18;;;;;;;5.57;2.90;;;;;;;15.20;100.00;100773.28;10461233;28;20101;-71
2022/10/04 22:41:19;;;;;;;7.03;3.35;;;;;;;15.35;100.00;100811.56;10458431;28;20057;-70
2022/10/04 22:46:20;;;;;;;6.07;3.10;;;;;;;15.29;100.00;100794.41;10458836;28;20057;-70
2022/10/04 22:51:21;;;;;;;10.75;2.63;;;;;;;15.45;100.00;100824.63;10457906;28;20133;-71
2022/10/04 22:56:22;;;;;;;4.57;2.00;;;;;;;14.91;100.00;100734.84;10458210;28;20536;-70
2022/10/04 23:01:25;;;;;;;5.15;2.58;;;;;;;14.84;100.00;100737.44;10458121;28;20136;-71
2022/10/04 23:06:26;;;;;;;6.75;2.40;;;;;;;15.23;100.00;100813.06;10458167;28;20041;-71
2022/10/04 23:11:30;;;;;;;4.43;2.30;;;;;;;14.76;100.00;100784.84;10457933;28;20049;-71
2022/10/04 23:16:31;;;;;;;13.20;2.88;;;;;;;15.06;100.00;100833.81;10458285;28;20068;-71
2022/10/04 23:21:35;;;;;;;6.15;2.22;;;;;;;14.88;100.00;100826.16;10457439;28;20073;-71
2022/10/04 23:26:38;;;;;;;3.15;1.83;;;;;;;14.80;100.00;100839.63;10457251;28;20037;-71
2022/10/04 23:31:39;;;;;;;7.60;1.98;;;;;;;14.77;100.00;100842.66;10456171;28;20068;-71
2022/10/04 23:36:40;;;;;;;15.02;5.85;;;;;;;14.61;100.00;100843.66;10456197;28;20072;-71
2022/10/04 23:41:43;;;;;;;23.38;12.15;;;;;;;13.85;100.00;100781.31;10455350;28;20106;-70
2022/10/04 23:46:43;;;;;;;18.33;8.05;;;;;;;14.10;100.00;100798.81;10455831;28;20033;-71
2022/10/04 23:51:46;;;;;;;17.30;7.25;;;;;;;14.32;100.00;100855.91;10455576;28;20048;-70
2022/10/04 23:56:47;;;;;;;19.38;7.68;;;;;;;13.60;100.00;100752.13;10456192;28;20525;-70
